Terminal Aerodrome Forecast
Issued by NWS Midland/Odessa, TX

Home | Current Version | Previous Version | Text Only | Print | Product List | Glossary On
Versions: 1 2 3 4 5 6 7 8 9 10 11 12 13 14 15 16 17 18 19 20 21 22 23 24 25 26 27 28 29 30 31 32
000
FTUS44 KMAF 250900 AAA
TAFMAF
TAF AMD
KMAF 250926Z 2509/2606 18006KT P6SM SKC
     FM251100 19006KT P6SM SCT003
      TEMPO 2511/2514 3SM BR BKN003
     FM251500 20010KT P6SM SKC=

USA.gov is the U.S. government's official web portal to all federal, state and local government web resources and services.